Time;durP1;ratioP1;P1;durP2;ratioP2;P2;SDS_P1;SDS_P2;PMS_P1;PMS_P2;Temp;Humidity;BMP_temperature;BMP_pressure;BME280_temperature;BME280_humidity;BME280_pressure;Samples;Min_cycle;Max_cycle;Signal;HPM_P1;HPM_P2
2021/11/08 00:01:54;;;;;;;18.63;4.07;;;;;;;6.94;90.33;101988.75;5038260;28;20360;-72
2021/11/08 00:04:20;;;;;;;21.85;3.60;;;;;;;6.95;90.63;101985.22;5056054;28;20021;-71
2021/11/08 00:06:45;;;;;;;23.40;3.78;;;;;;;6.96;90.56;101981.72;5055981;28;20027;-71
2021/11/08 00:09:11;;;;;;;18.85;3.70;;;;;;;6.93;90.51;101989.69;5056093;28;20124;-71
2021/11/08 00:11:38;;;;;;;19.30;3.22;;;;;;;6.93;90.29;101987.94;5055849;28;20025;-73
2021/11/08 00:14:03;;;;;;;21.70;4.03;;;;;;;6.96;90.07;101987.69;5037999;28;20048;-73
2021/11/08 00:16:40;;;;;;;18.55;3.00;;;;;;;6.94;91.06;101981.03;5055853;28;20036;-73
2021/11/08 00:21:59;;;;;;;16.92;3.45;;;;;;;6.98;90.05;101984.97;5017030;28;20032;-73
2021/11/08 00:24:27;;;;;;;13.60;2.60;;;;;;;6.92;90.11;101985.50;5055873;28;20391;-73
2021/11/08 00:26:53;;;;;;;17.98;3.08;;;;;;;6.81;90.41;101983.84;5037676;28;20021;-71
2021/11/08 00:29:18;;;;;;;16.75;3.58;;;;;;;6.70;90.77;101979.66;5055506;28;20028;-71
2021/11/08 00:31:43;;;;;;;14.50;3.28;;;;;;;6.68;90.57;101993.56;5056125;28;20085;-71
2021/11/08 00:34:09;;;;;;;16.90;2.80;;;;;;;6.66;91.13;101986.00;5055486;28;20017;-71
2021/11/08 00:36:34;;;;;;;19.05;3.13;;;;;;;6.67;91.01;101984.22;5055476;28;20036;-71
2021/11/08 00:39:00;;;;;;;17.88;3.45;;;;;;;6.66;91.09;101985.19;5055393;28;20498;-72
2021/11/08 00:41:25;;;;;;;15.15;3.03;;;;;;;6.71;90.97;101988.97;5055865;28;20085;-72
2021/11/08 00:43:50;;;;;;;13.38;3.35;;;;;;;6.66;91.32;101993.69;5037462;28;20025;-73
2021/11/08 00:46:16;;;;;;;24.40;4.00;;;;;;;6.76;91.20;101989.41;5055252;28;20032;-73
2021/11/08 00:48:42;;;;;;;17.17;2.63;;;;;;;6.76;90.44;101986.00;5055224;28;20036;-73
2021/11/08 00:51:08;;;;;;;16.90;3.15;;;;;;;6.85;90.51;101987.78;5055152;28;20036;-73
2021/11/08 00:53:35;;;;;;;16.33;2.90;;;;;;;6.77;90.55;102000.50;5037205;28;20392;-73
2021/11/08 00:56:03;;;;;;;11.98;2.58;;;;;;;6.77;91.16;101995.34;5055042;28;20025;-72
2021/11/08 00:58:34;;;;;;;12.32;2.78;;;;;;;6.80;90.26;101996.84;5054961;28;20035;-72
2021/11/08 01:01:04;;;;;;;18.20;2.78;;;;;;;6.57;90.41;101991.13;5055243;28;20029;-72
2021/11/08 01:03:35;;;;;;;19.02;3.05;;;;;;;6.49;90.76;101994.31;5054966;28;20021;-72
2021/11/08 01:06:02;;;;;;;11.63;2.90;;;;;;;6.39;90.42;102006.28;5055468;28;20035;-72
2021/11/08 01:08:27;;;;;;;14.10;3.83;;;;;;;6.32;90.40;102006.81;5054681;28;20045;-71
2021/11/08 01:10:52;;;;;;;15.23;3.08;;;;;;;6.27;91.18;102005.56;5054808;28;20092;-72
2021/11/08 01:13:19;;;;;;;15.63;2.95;;;;;;;6.29;90.61;102004.50;5054670;28;20036;-72
2021/11/08 01:15:44;;;;;;;12.68;2.70;;;;;;;6.26;91.12;102001.41;5055237;28;20051;-72
2021/11/08 01:18:10;;;;;;;14.77;2.80;;;;;;;6.25;90.34;102005.72;5036760;28;20029;-72
2021/11/08 01:20:36;;;;;;;19.10;3.25;;;;;;;6.16;91.07;101998.78;5054604;28;20032;-72
2021/11/08 01:23:04;;;;;;;22.65;3.60;;;;;;;6.26;91.22;102007.34;5036617;28;20463;-72
2021/11/08 01:25:31;;;;;;;16.30;2.90;;;;;;;6.33;90.19;101997.38;5055107;28;20100;-72
2021/11/08 01:27:59;;;;;;;16.17;3.13;;;;;;;6.31;90.51;102000.06;5054716;28;20484;-72
2021/11/08 01:30:25;;;;;;;16.40;3.40;;;;;;;6.37;90.27;102003.06;5054372;28;20380;-71
2021/11/08 01:32:56;;;;;;;21.85;3.72;;;;;;;6.38;90.73;102002.13;5053907;28;20017;-72
2021/11/08 01:35:30;;;;;;;18.17;3.08;;;;;;;6.27;90.37;102011.56;5054331;28;20091;-72
2021/11/08 01:38:08;;;;;;;15.98;3.08;;;;;;;6.20;90.43;102017.31;5054834;28;20470;-72
2021/11/08 01:40:35;;;;;;;15.10;2.90;;;;;;;6.15;90.60;102011.75;5054171;28;20021;-71
2021/11/08 01:43:00;;;;;;;18.42;4.15;;;;;;;6.08;90.25;102017.38;5036287;28;20032;-73
2021/11/08 01:45:27;;;;;;;15.52;2.90;;;;;;;6.10;90.97;102018.09;5036235;28;20487;-71
2021/11/08 01:47:52;;;;;;;18.80;3.13;;;;;;;6.02;90.52;102023.03;5054085;28;20383;-71
2021/11/08 01:50:18;;;;;;;12.63;2.88;;;;;;;6.01;91.22;102016.28;5054060;28;20025;-72
2021/11/08 01:52:44;;;;;;;12.07;2.60;;;;;;;5.98;91.02;102018.25;5053903;28;20060;-72
2021/11/08 01:55:10;;;;;;;17.38;3.42;;;;;;;6.00;91.21;102016.41;5035995;28;20075;-72
2021/11/08 01:57:37;;;;;;;20.23;3.20;;;;;;;6.07;91.24;102020.91;5053899;28;20024;-72
2021/11/08 02:00:05;;;;;;;19.95;3.20;;;;;;;6.01;91.61;102018.00;5053944;28;20107;-72
2021/11/08 02:02:31;;;;;;;19.00;2.90;;;;;;;5.96;91.04;102020.97;5053730;28;20422;-72
2021/11/08 02:04:56;;;;;;;17.10;2.85;;;;;;;5.98;91.38;102010.56;5053800;28;20024;-72
2021/11/08 02:07:21;;;;;;;12.05;2.50;;;;;;;6.02;90.79;102004.25;5053737;28;20111;-72
2021/11/08 02:09:47;;;;;;;21.58;3.13;;;;;;;6.03;90.93;102008.44;5053926;28;20044;-72
2021/11/08 02:12:13;;;;;;;18.80;2.75;;;;;;;6.01;90.31;102011.16;5053893;28;20025;-72
2021/11/08 02:14:40;;;;;;;13.45;2.70;;;;;;;6.09;90.64;102018.19;5053555;28;20096;-72
2021/11/08 02:17:06;;;;;;;15.82;3.38;;;;;;;6.04;90.36;102012.63;5053556;28;20391;-72
2021/11/08 02:19:31;;;;;;;15.07;2.90;;;;;;;6.03;89.89;102005.88;5053779;28;20032;-72
2021/11/08 02:21:59;;;;;;;14.43;2.92;;;;;;;6.05;90.40;102014.28;5053809;28;20021;-72
2021/11/08 02:24:26;;;;;;;13.98;2.88;;;;;;;5.99;90.27;102007.88;5053429;28;20104;-72
2021/11/08 02:26:51;;;;;;;16.55;2.90;;;;;;;6.00;89.77;102012.06;5053741;28;20025;-72
2021/11/08 02:29:16;;;;;;;16.25;3.15;;;;;;;5.89;90.40;102001.84;5053438;28;20024;-72
2021/11/08 02:31:42;;;;;;;16.35;2.60;;;;;;;5.86;90.14;102000.34;5035467;28;20383;-72
2021/11/08 02:34:07;;;;;;;17.83;2.90;;;;;;;5.75;90.65;101997.03;5035564;28;20021;-72
2021/11/08 02:36:34;;;;;;;14.05;2.90;;;;;;;5.77;90.71;101990.03;5053483;28;20028;-72
2021/11/08 02:39:01;;;;;;;13.98;3.22;;;;;;;5.85;90.73;101991.03;5035438;28;20025;-72
2021/11/08 02:41:27;;;;;;;17.17;3.45;;;;;;;5.99;90.13;101984.78;5053578;28;20178;-72
2021/11/08 02:43:53;;;;;;;9.55;2.83;;;;;;;6.02;89.38;101978.59;5053335;28;20029;-72
2021/11/08 02:46:24;;;;;;;17.13;3.80;;;;;;;5.90;89.12;101980.41;5053203;28;20029;-73
2021/11/08 02:48:51;;;;;;;10.60;2.65;;;;;;;5.88;89.11;101993.34;5053561;28;20448;-72
2021/11/08 02:51:24;;;;;;;15.65;3.17;;;;;;;5.86;89.90;101992.66;5053213;28;20025;-73
2021/11/08 02:53:56;;;;;;;15.73;3.05;;;;;;;5.95;89.67;101998.00;5053163;28;20021;-73
2021/11/08 02:56:21;;;;;;;15.70;2.67;;;;;;;5.85;89.57;101990.22;5053744;28;20031;-73
2021/11/08 02:58:47;;;;;;;13.85;3.17;;;;;;;5.81;90.06;101993.97;5053019;28;20024;-73
2021/11/08 03:01:17;;;;;;;16.27;2.90;;;;;;;5.72;90.22;101997.28;5053604;28;20357;-73
2021/11/08 03:03:50;;;;;;;13.68;2.90;;;;;;;5.78;90.22;102004.47;5035550;28;20048;-73
2021/11/08 03:08:43;;;;;;;16.95;2.60;;;;;;;5.87;89.80;102009.69;5053086;28;20127;-72
2021/11/08 03:11:09;;;;;;;17.65;3.55;;;;;;;5.79;90.08;102017.19;5053285;28;20068;-72
2021/11/08 03:13:37;;;;;;;24.77;3.60;;;;;;;5.86;89.95;102004.66;5052954;28;20108;-72
2021/11/08 03:16:11;;;;;;;14.55;2.42;;;;;;;5.84;90.07;102020.19;5035126;28;20075;-72
2021/11/08 03:18:40;;;;;;;12.45;2.60;;;;;;;5.81;90.26;102015.31;5053018;28;20036;-72
2021/11/08 03:21:14;;;;;;;23.10;3.10;;;;;;;5.86;89.88;102010.59;5035054;28;20032;-72
2021/11/08 03:23:40;;;;;;;12.18;2.38;;;;;;;5.88;89.96;102005.34;5052998;28;20048;-72
2021/11/08 03:26:16;;;;;;;16.08;2.97;;;;;;;5.89;90.11;102012.09;5052901;28;20059;-72
2021/11/08 03:28:41;;;;;;;17.25;2.88;;;;;;;5.89;89.59;102010.34;5052888;28;20021;-72
2021/11/08 03:31:10;;;;;;;12.43;2.67;;;;;;;5.85;89.89;102024.38;5052846;28;20076;-72
2021/11/08 03:33:36;;;;;;;11.88;2.45;;;;;;;5.83;90.20;102023.69;5052806;28;20025;-72
2021/11/08 03:36:02;;;;;;;14.35;2.75;;;;;;;5.77;90.43;102029.31;5052814;28;20032;-73
2021/11/08 03:38:28;;;;;;;14.80;2.70;;;;;;;5.70;90.57;102029.94;5052856;28;20024;-72
2021/11/08 03:40:54;;;;;;;11.60;2.75;;;;;;;5.75;90.61;102036.31;5034849;28;20099;-72
2021/11/08 03:43:20;;;;;;;11.05;2.72;;;;;;;5.66;90.27;102024.25;5052735;28;20053;-72
2021/11/08 03:45:49;;;;;;;9.45;2.65;;;;;;;5.70;89.98;102032.50;5052686;28;20025;-72
2021/11/08 03:48:16;;;;;;;14.32;2.83;;;;;;;5.73;90.27;102029.72;5034804;28;20110;-72
2021/11/08 03:50:42;;;;;;;22.38;2.67;;;;;;;5.70;90.16;102042.75;5052716;28;20048;-72
2021/11/08 03:53:08;;;;;;;12.48;2.63;;;;;;;5.71;89.81;102036.69;5052590;28;20482;-73
2021/11/08 03:55:35;;;;;;;16.05;2.72;;;;;;;5.66;89.65;102034.50;5035433;28;20532;-73
2021/11/08 03:58:00;;;;;;;15.48;2.85;;;;;;;5.71;90.05;102034.94;5056178;28;20096;-73
2021/11/08 04:00:27;;;;;;;16.10;2.70;;;;;;;5.68;89.54;102040.31;5056145;28;20029;-72
2021/11/08 04:02:56;;;;;;;19.23;4.20;;;;;;;5.60;89.82;102040.13;5038119;28;20017;-72
2021/11/08 04:05:23;;;;;;;11.90;2.55;;;;;;;5.57;89.63;102043.75;5056340;28;20352;-73
2021/11/08 04:07:50;;;;;;;13.77;2.78;;;;;;;5.56;89.63;102051.56;5056028;28;20021;-73
2021/11/08 04:10:17;;;;;;;11.43;2.63;;;;;;;5.55;89.84;102042.25;5055840;28;20049;-73
2021/11/08 04:12:43;;;;;;;13.63;2.92;;;;;;;5.51;89.36;102051.13;5055824;28;20079;-72
2021/11/08 04:15:13;;;;;;;13.63;2.85;;;;;;;5.60;89.52;102058.06;5055796;28;20024;-73
2021/11/08 04:17:44;;;;;;;12.88;2.78;;;;;;;5.61;89.60;102057.13;5055897;28;20028;-73
2021/11/08 04:20:12;;;;;;;10.48;2.30;;;;;;;5.62;89.64;102053.66;5037877;28;20017;-72
2021/11/08 04:22:38;;;;;;;13.48;2.67;;;;;;;5.65;90.27;102061.09;5055704;28;20033;-73
2021/11/08 04:25:05;;;;;;;15.27;2.70;;;;;;;5.69;90.20;102065.03;5055652;28;20329;-72
2021/11/08 04:27:35;;;;;;;15.80;2.70;;;;;;;5.72;89.79;102062.22;5055589;28;20025;-73
2021/11/08 04:30:01;;;;;;;15.57;3.15;;;;;;;5.72;90.03;102057.09;5056173;28;20025;-73
2021/11/08 04:32:31;;;;;;;10.13;2.65;;;;;;;5.74;90.18;102060.34;5055453;28;20498;-72
2021/11/08 04:35:04;;;;;;;9.68;2.47;;;;;;;5.70;89.65;102056.41;5056040;28;20115;-72
2021/11/08 04:37:55;;;;;;;10.85;2.53;;;;;;;5.73;90.49;102063.06;5037495;28;20031;-72
2021/11/08 04:40:30;;;;;;;11.02;2.40;;;;;;;5.79;89.90;102063.38;5055971;28;20029;-73
2021/11/08 04:50:58;;;;;;;12.30;2.58;;;;;;;5.97;90.11;102070.53;5055753;28;20044;-73
2021/11/08 04:53:36;;;;;;;10.43;2.72;;;;;;;5.89;89.89;102071.13;5055136;28;20074;-73
2021/11/08 04:56:50;;;;;;;13.38;2.70;;;;;;;5.82;90.53;102080.25;5055422;28;20460;-72
2021/11/08 05:31:25;;;;;;;13.05;2.50;;;;;;;5.62;90.15;102087.00;4974154;28;20452;-73
2021/11/08 05:33:51;;;;;;;15.35;3.10;;;;;;;5.62;90.33;102084.44;4957410;28;20113;-73
2021/11/08 05:36:16;;;;;;;11.25;2.55;;;;;;;5.55;89.76;102089.22;5010586;28;20399;-73
2021/11/08 05:38:41;;;;;;;17.05;2.83;;;;;;;5.47;89.77;102081.34;5054273;28;20057;-73
2021/11/08 05:41:07;;;;;;;20.55;3.08;;;;;;;5.64;90.22;102093.63;5054521;28;20087;-73
2021/11/08 05:43:32;;;;;;;19.50;3.00;;;;;;;5.64;90.27;102091.06;5054183;28;20491;-73
2021/11/08 05:45:57;;;;;;;16.90;3.08;;;;;;;5.67;90.21;102095.13;5054415;28;20078;-73
2021/11/08 05:48:22;;;;;;;18.05;3.10;;;;;;;5.66;90.25;102093.50;5054077;28;20027;-72
2021/11/08 05:50:48;;;;;;;14.15;2.85;;;;;;;5.76;90.45;102093.59;5054072;28;20028;-73
2021/11/08 05:53:14;;;;;;;14.32;2.83;;;;;;;5.80;90.17;102097.53;5053872;28;20020;-73
2021/11/08 05:56:48;;;;;;;18.40;3.13;;;;;;;5.81;90.52;102097.41;5053899;28;20036;-73
2021/11/08 05:58:58;;;;;;;12.75;3.08;;;;;;;5.84;90.66;102101.44;5032204;28;20068;-73
2021/11/08 06:48:40;;;;;;;16.55;3.58;;;;;;;6.56;89.31;102123.84;5053512;28;20107;-72
2021/11/08 06:50:46;;;;;;;18.05;3.60;;;;;;;6.96;88.90;102131.59;5021861;28;20080;-72
2021/11/08 06:53:19;;;;;;;13.40;3.10;;;;;;;6.92;88.11;102129.41;5052776;28;20028;-72
2021/11/08 06:55:48;;;;;;;19.42;3.22;;;;;;;6.88;88.08;102134.00;5034995;28;20021;-72
2021/11/08 06:58:17;;;;;;;23.23;3.60;;;;;;;6.93;87.56;102136.16;5052939;28;20082;-72
2021/11/08 07:00:45;;;;;;;18.70;3.00;;;;;;;6.80;88.28;102128.69;5035217;28;20024;-71
2021/11/08 07:03:11;;;;;;;28.05;3.63;;;;;;;6.84;88.29;102131.81;5053535;28;20031;-72
2021/11/08 07:05:37;;;;;;;15.75;3.17;;;;;;;6.82;88.24;102131.97;5052949;28;20025;-72
2021/11/08 07:08:03;;;;;;;26.92;3.92;;;;;;;6.82;88.13;102147.38;5052769;28;20021;-71
2021/11/08 07:10:28;;;;;;;14.73;2.53;;;;;;;6.94;88.02;102148.09;5034871;28;20108;-72
2021/11/08 07:12:53;;;;;;;10.15;3.03;;;;;;;6.91;86.89;102150.94;5052702;28;20028;-73
2021/11/08 07:15:20;;;;;;;15.65;2.92;;;;;;;6.88;87.15;102143.47;5052756;28;20467;-73
2021/11/08 07:17:47;;;;;;;18.08;3.15;;;;;;;6.95;87.46;102139.44;5052735;28;20184;-72
2021/11/08 07:20:12;;;;;;;13.75;2.85;;;;;;;7.10;86.60;102147.59;5034843;28;20032;-72
2021/11/08 07:22:38;;;;;;;22.20;3.65;;;;;;;7.20;86.43;102148.44;5052612;28;20017;-73
2021/11/08 07:25:04;;;;;;;19.67;3.70;;;;;;;7.24;86.06;102150.63;5052654;28;20035;-73
2021/11/08 07:27:30;;;;;;;21.05;4.00;;;;;;;7.43;86.60;102151.63;5052682;28;20025;-73
2021/11/08 07:29:56;;;;;;;14.50;2.92;;;;;;;7.54;85.50;102156.66;5052618;28;20029;-73
2021/11/08 07:32:24;;;;;;;14.10;2.60;;;;;;;7.58;84.64;102157.19;5056430;28;20025;-72
2021/11/08 07:34:50;;;;;;;15.80;2.78;;;;;;;7.57;84.50;102151.25;5038522;28;20021;-73
2021/11/08 07:37:15;;;;;;;17.77;3.80;;;;;;;7.80;84.86;102176.72;5056363;28;20387;-73
2021/11/08 07:39:40;;;;;;;16.33;4.43;;;;;;;7.90;85.07;102177.53;5056456;28;20049;-73
2021/11/08 07:42:06;;;;;;;12.85;2.80;;;;;;;7.79;85.85;102169.94;5056343;28;20052;-73
2021/11/08 07:44:31;;;;;;;14.50;2.88;;;;;;;7.90;85.35;102187.81;5056131;28;20355;-73
2021/11/08 07:46:57;;;;;;;22.20;3.17;;;;;;;7.93;84.58;102195.28;5056569;28;20384;-73
2021/11/08 07:49:22;;;;;;;24.50;3.70;;;;;;;7.79;83.85;102183.59;5056053;28;20467;-73
2021/11/08 07:51:49;;;;;;;16.02;2.92;;;;;;;7.89;84.14;102202.47;5055983;28;20035;-72
2021/11/08 07:54:15;;;;;;;18.83;3.45;;;;;;;7.85;84.57;102201.13;5056055;28;20436;-73
2021/11/08 07:56:40;;;;;;;14.60;3.30;;;;;;;7.85;84.57;102205.44;5038271;28;20087;-73
2021/11/08 07:59:05;;;;;;;22.35;3.55;;;;;;;7.90;84.64;102200.69;5056447;28;20075;-73
2021/11/08 08:01:30;;;;;;;15.85;3.50;;;;;;;8.08;84.10;102211.13;5055960;28;20032;-73
2021/11/08 08:03:56;;;;;;;15.48;3.10;;;;;;;8.05;84.51;102217.34;5055990;28;20029;-73
2021/11/08 08:06:21;;;;;;;17.70;3.50;;;;;;;8.04;86.00;102220.91;5038039;28;20035;-73
2021/11/08 08:08:49;;;;;;;23.48;3.47;;;;;;;8.06;85.31;102218.19;5055736;28;20045;-73
2021/11/08 08:11:17;;;;;;;15.32;3.13;;;;;;;8.08;85.93;102216.28;5055986;28;20064;-73
2021/11/08 08:13:43;;;;;;;16.63;3.22;;;;;;;8.05;85.11;102217.34;5055692;28;20025;-73
2021/11/08 08:16:12;;;;;;;20.08;3.50;;;;;;;7.88;86.10;102228.31;5037811;28;20025;-73
2021/11/08 08:18:37;;;;;;;20.40;3.25;;;;;;;7.89;86.43;102230.78;5037765;28;20029;-73
2021/11/08 08:21:05;;;;;;;22.35;3.90;;;;;;;8.05;85.69;102232.81;5055790;28;20033;-72
2021/11/08 08:23:31;;;;;;;17.80;3.92;;;;;;;8.16;85.94;102225.91;5055627;28;20020;-73
2021/11/08 08:25:57;;;;;;;17.70;3.92;;;;;;;8.34;84.41;102232.00;5055546;28;20521;-73
2021/11/08 08:28:23;;;;;;;15.90;3.40;;;;;;;8.46;85.74;102249.00;5055396;28;20104;-74
2021/11/08 08:30:49;;;;;;;18.73;3.80;;;;;;;8.48;84.49;102247.06;5055443;28;20023;-73
2021/11/08 08:33:14;;;;;;;16.70;3.70;;;;;;;8.46;85.68;102246.41;5037350;28;20079;-72
2021/11/08 08:35:40;;;;;;;18.27;3.33;;;;;;;8.52;85.22;102243.28;5037500;28;20025;-73
2021/11/08 08:38:10;;;;;;;23.55;4.43;;;;;;;8.58;85.39;102257.38;5055288;28;20074;-72
2021/11/08 08:40:36;;;;;;;17.98;4.32;;;;;;;8.63;85.17;102239.75;5055550;28;20108;-72
2021/11/08 08:43:03;;;;;;;18.70;3.63;;;;;;;8.85;84.96;102251.50;5036853;28;20025;-72
2021/11/08 08:45:30;;;;;;;14.68;3.28;;;;;;;9.10;82.76;102247.50;5055176;28;20021;-72
2021/11/08 08:47:55;;;;;;;16.98;3.45;;;;;;;9.36;82.97;102252.81;5055378;28;20383;-73
2021/11/08 08:50:21;;;;;;;15.45;3.22;;;;;;;9.52;82.05;102243.63;5054986;28;20028;-72
2021/11/08 08:52:47;;;;;;;15.13;3.10;;;;;;;9.71;81.60;102241.75;5054914;28;20033;-72
2021/11/08 08:58:36;;;;;;;11.98;3.45;;;;;;;10.31;79.66;102246.38;5055416;28;20419;-73
2021/11/08 09:01:02;;;;;;;14.00;2.97;;;;;;;10.41;80.25;102251.47;5055102;28;20035;-73
2021/11/08 09:03:27;;;;;;;20.10;3.40;;;;;;;10.71;78.14;102252.03;5037092;28;20029;-73
2021/11/08 09:05:52;;;;;;;15.80;3.35;;;;;;;11.31;76.36;102252.00;5055063;28;20017;-73
2021/11/08 09:08:19;;;;;;;13.98;3.03;;;;;;;11.55;74.92;102255.66;5054822;28;20356;-73
2021/11/08 09:10:45;;;;;;;17.08;3.17;;;;;;;12.48;72.34;102253.69;5055132;28;20116;-73
2021/11/08 09:13:10;;;;;;;13.82;2.90;;;;;;;13.90;66.11;102249.47;5055745;28;20104;-73
2021/11/08 09:15:36;;;;;;;14.82;3.45;;;;;;;14.48;64.16;102248.03;5037280;28;20020;-73
2021/11/08 09:18:04;;;;;;;14.77;2.78;;;;;;;14.47;62.89;102242.97;5054699;28;20406;-73
2021/11/08 09:20:31;;;;;;;19.13;3.13;;;;;;;12.27;70.60;102237.81;5036831;28;20040;-72
2021/11/08 09:22:57;;;;;;;18.20;3.55;;;;;;;11.55;75.27;102240.94;5054640;28;20012;-73
2021/11/08 09:25:25;;;;;;;18.27;3.08;;;;;;;11.43;74.09;102245.59;5054668;28;20029;-73
2021/11/08 09:27:53;;;;;;;12.13;3.20;;;;;;;11.30;74.54;102248.59;5055199;28;20074;-73
2021/11/08 09:30:22;;;;;;;21.90;3.20;;;;;;;11.40;76.63;102251.06;5054574;28;20024;-72
2021/11/08 09:32:48;;;;;;;19.52;3.20;;;;;;;11.15;76.37;102254.53;5054224;28;20024;-73
2021/11/08 09:35:14;;;;;;;17.27;3.10;;;;;;;11.43;77.23;102257.72;5054370;28;20387;-73
2021/11/08 09:37:44;;;;;;;14.48;3.55;;;;;;;11.68;74.20;102256.84;5054308;28;20025;-73
2021/11/08 09:40:13;;;;;;;13.57;3.13;;;;;;;11.77;74.88;102262.00;5036447;28;20029;-73
2021/11/08 09:42:39;;;;;;;14.95;2.55;;;;;;;11.70;74.51;102265.22;5054117;28;20020;-73
2021/11/08 09:45:05;;;;;;;19.13;2.92;;;;;;;12.47;74.90;102262.44;5054113;28;20471;-73
2021/11/08 09:47:32;;;;;;;16.55;2.90;;;;;;;12.71;73.33;102264.19;5054140;28;20172;-73
2021/11/08 09:50:03;;;;;;;14.98;3.17;;;;;;;12.77;71.70;102267.91;5054071;28;20029;-67
2021/11/08 09:55:50;;;;;;;14.73;3.25;;;;;;;12.95;69.14;102271.13;5054169;28;20063;-72
2021/11/08 09:58:15;;;;;;;19.92;3.38;;;;;;;14.21;65.69;102270.19;5053943;28;20080;-72
2021/11/08 10:00:48;;;;;;;15.70;2.72;;;;;;;13.71;66.74;102271.50;5054376;28;20050;-72
2021/11/08 10:03:26;;;;;;;18.70;3.28;;;;;;;14.83;63.17;102267.38;5054415;28;20028;-72
2021/11/08 10:05:55;;;;;;;17.15;3.10;;;;;;;16.91;57.05;102264.84;5036029;28;20075;-73
2021/11/08 10:08:33;;;;;;;12.85;2.45;;;;;;;15.69;60.60;102270.28;5053621;28;20013;-72
2021/11/08 10:11:04;;;;;;;17.48;3.10;;;;;;;16.75;56.63;102266.94;5035800;28;20029;-73
2021/11/08 10:13:31;;;;;;;16.20;2.60;;;;;;;16.16;57.32;102263.69;5054217;28;20029;-73
2021/11/08 10:16:01;;;;;;;11.10;2.55;;;;;;;15.04;59.66;102252.84;5053740;28;20044;-72
2021/11/08 10:18:26;;;;;;;22.42;3.10;;;;;;;14.91;61.82;102265.69;5035753;28;20021;-72
2021/11/08 10:21:04;;;;;;;14.45;2.63;;;;;;;15.08;61.73;102261.91;5053652;28;20363;-72
2021/11/08 10:23:30;;;;;;;13.93;3.03;;;;;;;15.77;60.21;102267.56;5035773;28;20020;-72
2021/11/08 10:25:55;;;;;;;12.13;2.70;;;;;;;15.60;59.62;102271.34;5053490;28;20046;-72
2021/11/08 10:28:25;;;;;;;18.50;3.10;;;;;;;17.25;53.55;102260.59;5035514;28;20032;-72
2021/11/08 10:31:02;;;;;;;15.93;2.95;;;;;;;18.25;50.92;102268.66;5053378;28;20021;-72
2021/11/08 10:33:33;;;;;;;10.57;2.58;;;;;;;15.66;56.35;102273.22;5053350;28;20028;-71
2021/11/08 10:36:07;;;;;;;13.15;2.45;;;;;;;14.68;58.79;102269.16;5053417;28;20028;-72
2021/11/08 10:38:35;;;;;;;17.73;3.00;;;;;;;14.25;62.30;102268.06;5035534;28;20028;-72
2021/11/08 10:41:02;;;;;;;18.30;2.83;;;;;;;13.67;63.23;102275.44;5035425;28;20025;-72
2021/11/08 10:43:33;;;;;;;14.43;2.70;;;;;;;13.68;62.14;102267.44;5053537;28;20519;-73
2021/11/08 10:46:15;;;;;;;18.65;2.75;;;;;;;15.10;60.63;102260.75;5053369;28;20033;-73
2021/11/08 10:48:54;;;;;;;17.17;3.03;;;;;;;15.34;60.29;102264.84;5053649;28;20086;-73
2021/11/08 10:54:48;;;;;;;20.63;3.00;;;;;;;14.52;61.97;102264.91;5053454;28;20048;-72
2021/11/08 10:57:17;;;;;;;22.52;3.10;;;;;;;13.89;63.24;102266.03;5053213;28;20025;-72
2021/11/08 10:59:48;;;;;;;15.93;3.03;;;;;;;13.61;64.08;102257.91;5053430;28;20029;-72
2021/11/08 11:02:18;;;;;;;13.27;3.38;;;;;;;13.42;66.38;102259.94;5035194;28;20044;-72
2021/11/08 11:04:52;;;;;;;18.33;3.22;;;;;;;13.22;66.17;102263.91;5054308;28;20476;-72
2021/11/08 11:07:35;;;;;;;15.90;3.17;;;;;;;13.07;67.89;102269.78;5039271;28;20029;-72
2021/11/08 11:10:05;;;;;;;14.13;2.92;;;;;;;12.77;68.96;102273.09;5039079;28;20128;-72
2021/11/08 11:12:30;;;;;;;16.83;2.85;;;;;;;12.60;67.90;102280.91;5057238;28;20017;-72
2021/11/08 11:14:55;;;;;;;18.73;2.83;;;;;;;12.62;66.54;102283.34;5057022;28;20399;-72
2021/11/08 11:17:33;;;;;;;20.42;2.78;;;;;;;12.77;67.95;102279.09;5056996;28;20379;-72
2021/11/08 11:20:06;;;;;;;16.77;2.67;;;;;;;12.67;68.50;102275.06;5056893;28;20036;-72
2021/11/08 11:22:33;;;;;;;13.02;2.55;;;;;;;12.52;67.59;102280.91;5057531;28;20067;-72
2021/11/08 11:25:01;;;;;;;13.65;2.70;;;;;;;12.37;67.97;102285.13;5056786;28;20017;-72
2021/11/08 11:27:28;;;;;;;16.65;2.47;;;;;;;12.45;67.48;102284.31;5057282;28;20070;-71
2021/11/08 11:30:10;;;;;;;11.43;2.67;;;;;;;12.83;67.60;102259.47;5038717;28;20124;-72
2021/11/08 11:32:36;;;;;;;18.38;2.88;;;;;;;13.12;67.42;102271.06;5056536;28;20025;-71
2021/11/08 11:35:01;;;;;;;21.27;3.00;;;;;;;14.97;59.82;102277.97;5056740;28;20027;-72
2021/11/08 11:37:28;;;;;;;13.45;2.55;;;;;;;18.29;52.35;102279.50;5038400;28;20111;-73
2021/11/08 11:40:10;;;;;;;14.63;2.85;;;;;;;17.65;50.33;102284.25;5038484;28;20035;-73
2021/11/08 11:42:55;;;;;;;12.52;2.60;;;;;;;16.90;55.04;102278.91;5039334;28;20021;-73
2021/11/08 11:45:22;;;;;;;14.13;2.90;;;;;;;16.43;53.54;102280.38;5056504;28;20067;-73
2021/11/08 11:48:02;;;;;;;14.38;3.58;;;;;;;14.59;59.85;102272.84;5056327;28;20025;-74
2021/11/08 11:50:33;;;;;;;16.42;3.38;;;;;;;13.34;63.99;102279.94;5056440;28;20479;-66
2021/11/08 11:53:00;;;;;;;17.52;2.97;;;;;;;12.78;67.14;102278.13;5038343;28;20029;-66
2021/11/08 11:55:26;;;;;;;15.55;3.38;;;;;;;12.49;69.16;102280.44;5056148;28;20028;-66
2021/11/08 11:57:56;;;;;;;13.63;2.90;;;;;;;12.03;70.43;102277.50;5038155;28;20021;-65
2021/11/08 12:00:26;;;;;;;20.65;3.35;;;;;;;11.89;72.42;102278.94;5056120;28;20025;-66
2021/11/08 12:02:52;;;;;;;15.40;3.08;;;;;;;11.91;72.38;102282.16;5056111;28;20021;-65
2021/11/08 12:05:19;;;;;;;16.10;3.35;;;;;;;11.90;73.26;102288.31;5056064;28;20107;-66
2021/11/08 12:07:59;;;;;;;21.92;3.72;;;;;;;11.75;71.70;102288.88;5056185;28;20033;-66
2021/11/08 12:10:25;;;;;;;15.95;3.33;;;;;;;11.58;72.40;102289.81;5055875;28;20056;-66
2021/11/08 12:12:51;;;;;;;13.95;2.67;;;;;;;11.40;72.42;102286.50;5055881;28;20161;-66
2021/11/08 12:15:28;;;;;;;21.85;3.17;;;;;;;11.32;72.79;102286.47;5055913;28;20107;-65
2021/11/08 12:17:54;;;;;;;16.88;2.67;;;;;;;11.22;74.21;102290.00;5037139;28;20044;-66
2021/11/08 12:20:27;;;;;;;14.60;2.70;;;;;;;11.34;72.94;102280.16;5055657;28;20523;-65
2021/11/08 12:22:53;;;;;;;;;;;;;;;11.30;73.96;102279.66;5056585;28;20448;-66
2021/11/08 12:25:22;;;;;;;17.88;2.67;;;;;;;11.23;72.86;102281.25;5055711;28;20011;-65
2021/11/08 12:27:50;;;;;;;16.92;2.85;;;;;;;11.36;72.55;102274.81;5055651;28;20036;-65
2021/11/08 12:30:19;;;;;;;13.30;2.20;;;;;;;11.45;73.80;102277.31;5055361;28;20033;-65
2021/11/08 12:32:51;;;;;;;18.58;2.85;;;;;;;11.47;73.73;102272.75;5055762;28;20071;-65
2021/11/08 12:35:21;;;;;;;16.98;2.40;;;;;;;11.57;74.19;102277.84;5056063;28;20029;-64
2021/11/08 12:37:47;;;;;;;16.27;3.00;;;;;;;11.91;73.45;102271.78;5055488;28;20044;-65
2021/11/08 12:40:15;;;;;;;20.85;3.10;;;;;;;12.17;71.78;102271.69;5055080;28;20096;-65
2021/11/08 12:42:43;;;;;;;15.23;2.65;;;;;;;12.28;72.40;102266.16;5037299;28;20021;-65
2021/11/08 12:45:26;;;;;;;23.58;2.67;;;;;;;12.32;73.16;102266.66;5054912;28;20071;-64
2021/11/08 12:48:06;;;;;;;14.13;2.30;;;;;;;12.15;75.86;102266.66;5037030;28;20052;-65
2021/11/08 12:50:49;;;;;;;18.23;2.55;;;;;;;12.25;74.09;102261.28;5055292;28;20349;-65
2021/11/08 12:53:29;;;;;;;17.73;2.70;;;;;;;12.65;73.38;102251.88;5055536;28;20035;-66
2021/11/08 12:55:57;;;;;;;17.00;2.33;;;;;;;12.65;73.02;102252.69;5054875;28;20025;-65
2021/11/08 12:58:44;;;;;;;10.48;2.33;;;;;;;12.67;71.39;102251.72;5054838;28;20387;-65
2021/11/08 13:04:42;;;;;;;20.42;3.15;;;;;;;12.67;71.46;102249.13;5055088;28;20133;-67
2021/11/08 13:07:10;;;;;;;18.98;3.65;;;;;;;12.51;71.57;102248.16;5055429;28;20049;-65
2021/11/08 13:09:39;;;;;;;15.40;2.78;;;;;;;12.46;72.71;102260.84;5036620;28;20060;-65
2021/11/08 13:12:11;;;;;;;18.13;2.83;;;;;;;12.19;73.74;102256.75;5054689;28;20064;-66
2021/11/08 13:14:37;;;;;;;12.98;2.40;;;;;;;12.05;74.70;102249.63;5036713;28;20048;-66